Terminal Aerodrome Forecast
Issued by NWS Cleveland, OH

Home | Current Version | Previous Version | Graphics & Text | Print | Product List | Glossary Off
Versions: 1 2 3 4 5 6 7 8 9 10 11 12 13 14

000
FTUS41 KCLE 291431 AAA
TAFTOL
TAF AMD
KTOL 291431Z 2915/3012 18006KT P6SM BKN050 OVC100
      TEMPO 2915/2918 5SM -SHRA OVC050
     FM291900 20010KT P6SM VCTS BKN050CB
     FM300200 20008KT P6SM BKN100=

USA.gov is the U.S. government's official web portal to all federal, state and local government web resources and services.